Terminal Aerodrome Forecast
Issued by NWS Milwaukee/Sullivan, WI

Home | Current Version | Previous Version | Text Only | Print | Product List | Glossary On
Versions: 1 2 3 4 5 6 7 8 9 10 11 12 13 14 15 16 17 18 19 20 21 22 23 24 25 26 27
000
FTUS43 KMKX 301434 AAA
TAFMSN
TAF AMD
KMSN 301434Z 3015/0112 08009KT P6SM SCT035 OVC120
     FM301700 08011G20KT 6SM -RA OVC025
     FM302100 08012G24KT 3SM -RA OVC015
     FM010000 04015G25KT 5SM SHRA OVC015
     FM010500 03011G19KT P6SM OVC015 PROB30 0105/0109 4SM -SHRA
      OVC007=

USA.gov is the U.S. government's official web portal to all federal, state and local government web resources and services.